ΕΜΥ, Εθνική Μετεωρολογική Υπηρεσία - Δελτία Καιρού, Προγνώσεις

ΑΕΡΟΝΑΥΤΙΛΙΑ

GREEK AIRPORTS CODES

LGAV 010650Z 34004KT 290V010 9999 SCT020 06/00 Q1020 RMK NOSIG=

EUROPEAN AIRPORTS CODES

LFPO 010700Z 24004KT 210V270 9999 BKN041 06/02 Q1028 NOSIG=